Time;durP1;ratioP1;P1;durP2;ratioP2;P2;SDS_P1;SDS_P2;PMS_P1;PMS_P2;Temp;Humidity;BMP_temperature;BMP_pressure;BME280_temperature;BME280_humidity;BME280_pressure;Samples;Min_cycle;Max_cycle;Signal;HPM_P1;HPM_P2
2023/09/29 00:01:34;;;;;;;21.77;5.13;;;;;;;-143.21;60.72;72298.25;6307184;22;20273;-77
2023/09/29 00:04:03;;;;;;;13.27;5.07;;;;;;;-143.21;61.07;72308.16;6333273;22;20174;-76
2023/09/29 00:06:29;;;;;;;15.47;5.70;;;;;;;-143.21;61.33;72306.19;6334521;22;20186;-78
2023/09/29 00:08:56;;;;;;;14.23;5.10;;;;;;;-143.21;61.55;72304.19;6334382;22;20187;-78
2023/09/29 00:11:23;;;;;;;9.43;5.07;;;;;;;-143.21;61.53;72300.25;6334065;22;20163;-78
2023/09/29 00:13:52;;;;;;;12.03;5.60;;;;;;;-143.21;61.65;72296.28;6335325;22;20167;-77
2023/09/29 00:16:19;;;;;;;13.20;5.30;;;;;;;-143.21;61.89;72302.22;6332829;22;20550;-78
2023/09/29 00:18:46;;;;;;;12.37;5.37;;;;;;;-143.21;61.75;72298.25;6331630;22;20567;-78
2023/09/29 00:21:13;;;;;;;10.83;5.10;;;;;;;-143.21;61.38;72302.22;6332193;22;20654;-78
2023/09/29 00:23:40;;;;;;;14.70;5.20;;;;;;;-143.21;61.76;72308.16;6334929;22;20632;-78
2023/09/29 00:26:07;;;;;;;13.33;5.60;;;;;;;-143.21;61.96;72312.13;6332763;22;20170;-77
2023/09/29 00:28:34;;;;;;;9.63;5.33;;;;;;;-143.21;62.17;72318.09;6331604;22;20220;-77
2023/09/29 00:31:02;;;;;;;15.18;5.28;;;;;;;-143.21;62.15;72318.09;6332937;22;20615;-77
2023/09/29 00:33:30;;;;;;;12.03;5.70;;;;;;;-143.21;62.10;72316.09;6334031;22;20164;-77
2023/09/29 00:35:59;;;;;;;13.97;5.40;;;;;;;-143.21;61.87;72310.16;6334336;22;20167;-77
2023/09/29 00:38:26;;;;;;;15.40;5.43;;;;;;;-143.21;62.65;72312.13;6332184;22;20171;-79
2023/09/29 00:40:53;;;;;;;9.67;5.07;;;;;;;-143.21;62.49;72326.00;6332840;22;20579;-78
2023/09/29 00:43:19;;;;;;;9.43;5.33;;;;;;;-143.21;62.67;72324.03;6332286;22;20246;-77
2023/09/29 00:45:48;;;;;;;16.83;5.90;;;;;;;-143.21;62.70;72328.00;6335052;22;20167;-77
2023/09/29 00:48:18;;;;;;;15.47;5.40;;;;;;;-143.21;63.19;72331.97;6332070;22;20256;-77
2023/09/29 00:50:46;;;;;;;20.07;6.10;;;;;;;-143.21;63.05;72331.97;6332969;22;20160;-76
2023/09/29 00:53:15;;;;;;;13.53;5.30;;;;;;;-143.21;62.71;72333.94;6332147;22;20661;-78
2023/09/29 00:55:45;;;;;;;12.23;5.40;;;;;;;-143.21;62.84;72326.00;6334095;22;20196;-77
2023/09/29 00:58:14;;;;;;;13.23;5.97;;;;;;;-143.21;62.94;72326.00;6333510;22;20540;-78
2023/09/29 01:00:41;;;;;;;20.27;5.30;;;;;;;-143.21;62.87;72331.97;6333189;22;20264;-77
2023/09/29 01:03:10;;;;;;;12.03;5.43;;;;;;;-143.21;63.34;72333.94;6333616;22;20201;-77
2023/09/29 01:05:42;;;;;;;14.53;5.23;;;;;;;-143.21;63.41;72343.88;6332537;22;20189;-77
2023/09/29 01:08:12;;;;;;;14.27;5.57;;;;;;;-143.21;63.38;72343.88;6334826;22;20171;-77
2023/09/29 01:10:40;;;;;;;15.73;5.77;;;;;;;-143.21;63.20;72341.88;6333258;22;20614;-77
2023/09/29 01:13:08;;;;;;;16.00;5.50;;;;;;;-143.21;62.88;72347.84;6333433;22;20186;-78
2023/09/29 01:15:36;;;;;;;14.33;6.17;;;;;;;-143.21;62.81;72347.84;6332508;22;20172;-77
2023/09/29 01:18:03;;;;;;;9.03;4.93;;;;;;;-143.21;62.95;72335.94;6332874;22;20172;-77
2023/09/29 01:20:30;;;;;;;8.77;4.90;;;;;;;-143.21;63.13;72347.84;6333584;22;20187;-77
2023/09/29 01:23:00;;;;;;;16.20;5.47;;;;;;;-143.21;63.80;72363.69;6333057;22;20164;-77
2023/09/29 01:25:29;;;;;;;14.83;5.40;;;;;;;-143.21;63.80;72367.66;6333223;22;20164;-78
2023/09/29 01:27:57;;;;;;;15.00;5.13;;;;;;;-143.21;64.35;72387.50;6332549;22;20789;-77
2023/09/29 01:30:25;;;;;;;11.93;5.90;;;;;;;-143.21;64.33;72387.50;6334124;22;20171;-77
2023/09/29 01:32:56;;;;;;;15.60;5.60;;;;;;;-143.21;64.51;72391.47;6333202;22;20164;-77
2023/09/29 01:35:24;;;;;;;12.37;5.70;;;;;;;-143.21;64.27;72391.47;6332689;22;20522;-78
2023/09/29 01:37:53;;;;;;;13.87;5.90;;;;;;;-143.21;64.38;72381.53;6333853;22;20163;-77
2023/09/29 01:40:22;;;;;;;12.63;5.53;;;;;;;-143.21;64.44;72383.53;6333485;22;20198;-77
2023/09/29 01:42:51;;;;;;;16.03;5.87;;;;;;;-143.21;64.01;72381.53;6335296;22;20170;-77
2023/09/29 01:45:18;;;;;;;11.53;5.30;;;;;;;-143.21;63.36;72377.56;6333088;22;20171;-78
2023/09/29 01:47:46;;;;;;;13.07;5.53;;;;;;;-143.21;63.70;72387.50;6332124;22;20174;-77
2023/09/29 01:50:16;;;;;;;9.47;5.00;;;;;;;-143.21;63.92;72395.44;6332151;22;20164;-78
2023/09/29 01:52:43;;;;;;;9.73;5.50;;;;;;;-143.21;63.22;72391.47;6333965;22;20166;-78
2023/09/29 01:55:14;;;;;;;15.17;5.47;;;;;;;-143.21;63.33;72399.41;6333169;22;20178;-78
2023/09/29 01:57:42;;;;;;;10.93;4.97;;;;;;;-143.21;63.88;72403.34;6331820;22;20273;-77
2023/09/29 02:00:14;;;;;;;10.80;5.20;;;;;;;-143.21;63.60;72403.34;6332251;22;20195;-77
2023/09/29 02:02:43;;;;;;;13.50;5.30;;;;;;;-143.21;63.82;72411.28;6332427;22;20148;-77
2023/09/29 02:05:11;;;;;;;11.80;5.30;;;;;;;-143.21;64.17;72405.34;6334660;22;20191;-77
2023/09/29 02:07:39;;;;;;;9.70;5.10;;;;;;;-143.21;64.15;72413.28;6333158;22;20172;-77
2023/09/29 02:10:07;;;;;;;12.53;4.93;;;;;;;-143.21;64.07;72407.31;6332886;22;20561;-77
2023/09/29 02:12:35;;;;;;;11.90;5.00;;;;;;;-143.21;64.12;72405.34;6331716;22;20171;-77
2023/09/29 02:15:06;;;;;;;15.03;5.33;;;;;;;-143.21;63.67;72409.31;6332722;22;20174;-77
2023/09/29 02:17:36;;;;;;;16.73;5.83;;;;;;;-143.21;63.31;72401.38;6333562;22;20160;-77
2023/09/29 02:20:21;;;;;;;14.40;4.97;;;;;;;-143.21;63.64;72407.31;6332050;22;20228;-77
2023/09/29 02:22:48;;;;;;;20.13;5.70;;;;;;;-143.21;64.07;72403.34;6331964;22;20200;-78
2023/09/29 02:25:18;;;;;;;13.60;5.27;;;;;;;-143.21;64.40;72403.34;6331602;22;20175;-78
2023/09/29 02:27:46;;;;;;;13.53;5.13;;;;;;;-143.21;64.04;72405.34;6332540;22;20172;-80
2023/09/29 02:30:13;;;;;;;16.07;5.20;;;;;;;-143.21;64.22;72399.41;6334028;22;20220;-77
2023/09/29 02:32:42;;;;;;;12.37;5.00;;;;;;;-143.21;64.46;72409.31;6332502;22;20168;-78
2023/09/29 02:35:10;;;;;;;10.47;5.53;;;;;;;-143.21;64.53;72409.31;6332959;22;20277;-78
2023/09/29 02:37:37;;;;;;;20.00;5.40;;;;;;;-143.21;64.67;72409.31;6332580;22;20201;-78
2023/09/29 02:40:06;;;;;;;11.03;4.77;;;;;;;-143.21;64.73;72407.31;6333820;22;20841;-79
2023/09/29 02:42:33;;;;;;;14.87;5.63;;;;;;;-143.21;64.90;72405.34;6332470;22;20164;-78
2023/09/29 02:44:59;;;;;;;12.67;5.07;;;;;;;-143.21;64.33;72399.41;6331882;22;20167;-79
2023/09/29 02:47:26;;;;;;;19.07;6.03;;;;;;;-143.21;64.18;72395.44;6332002;22;20168;-79
2023/09/29 02:49:54;;;;;;;13.83;5.27;;;;;;;-143.21;64.09;72395.44;6332418;22;20167;-79
2023/09/29 02:52:21;;;;;;;16.23;5.47;;;;;;;-143.21;63.65;72393.44;6333525;22;20164;-78
2023/09/29 02:54:49;;;;;;;13.60;5.67;;;;;;;-143.21;63.88;72391.47;6332204;22;20186;-78
2023/09/29 02:57:16;;;;;;;15.77;5.27;;;;;;;-143.21;63.93;72391.47;6331589;22;20192;-78
2023/09/29 02:59:44;;;;;;;12.63;5.47;;;;;;;-143.21;63.81;72391.47;6332106;22;20178;-78
2023/09/29 03:02:12;;;;;;;16.33;5.77;;;;;;;-143.21;63.54;72395.44;6333516;22;20191;-78
2023/09/29 03:04:39;;;;;;;14.07;5.60;;;;;;;-143.21;63.64;72391.47;6332175;22;20168;-78
2023/09/29 03:07:09;;;;;;;17.37;5.53;;;;;;;-143.21;63.38;72399.41;6331740;22;20160;-78
2023/09/29 03:09:36;;;;;;;14.07;5.40;;;;;;;-143.21;63.54;72393.44;6331501;22;20254;-78
2023/09/29 03:12:03;;;;;;;11.67;5.10;;;;;;;-143.21;62.86;72395.44;6332985;22;20164;-78
2023/09/29 03:14:30;;;;;;;15.03;5.37;;;;;;;-143.21;62.38;72385.50;6333201;22;20167;-78
2023/09/29 03:17:00;;;;;;;16.13;5.40;;;;;;;-143.21;62.28;72391.47;6334260;22;20614;-78
2023/09/29 03:19:27;;;;;;;16.83;5.40;;;;;;;-143.21;62.32;72399.41;6332915;22;20167;-78
2023/09/29 03:21:54;;;;;;;12.47;5.27;;;;;;;-143.21;62.78;72395.44;6333083;22;20277;-78
2023/09/29 03:24:23;;;;;;;10.13;5.17;;;;;;;-143.21;62.41;72403.34;6334835;22;20171;-78
2023/09/29 03:26:51;;;;;;;18.57;5.60;;;;;;;-143.21;62.49;72399.41;6333776;22;20174;-78
2023/09/29 03:29:18;;;;;;;14.23;5.00;;;;;;;-143.21;62.88;72395.44;6332576;22;20160;-78
2023/09/29 03:31:46;;;;;;;13.03;5.03;;;;;;;-143.21;62.54;72393.44;6333697;22;20191;-78
2023/09/29 03:34:15;;;;;;;16.80;5.80;;;;;;;-143.21;63.05;72405.34;6333450;22;20167;-78
2023/09/29 03:36:41;;;;;;;16.60;5.60;;;;;;;-143.21;62.64;72401.38;6335812;22;20645;-78
2023/09/29 03:39:09;;;;;;;8.13;4.93;;;;;;;-143.21;63.11;72403.34;6333580;22;20160;-77
2023/09/29 03:41:37;;;;;;;11.93;5.07;;;;;;;-143.21;62.94;72399.41;6332376;22;20191;-77
2023/09/29 03:44:05;;;;;;;13.17;5.07;;;;;;;-143.21;62.77;72395.44;6333199;22;20564;-78
2023/09/29 03:46:31;;;;;;;14.20;4.83;;;;;;;-143.21;62.96;72395.44;6335181;22;20182;-79
2023/09/29 03:48:58;;;;;;;15.83;5.83;;;;;;;-143.21;63.09;72391.47;6333929;22;20174;-79
2023/09/29 03:51:25;;;;;;;18.83;5.50;;;;;;;-143.21;63.35;72395.44;6332856;22;20506;-78
2023/09/29 03:53:55;;;;;;;19.17;5.57;;;;;;;-143.21;63.22;72393.44;6332732;22;20163;-79
2023/09/29 03:56:23;;;;;;;28.30;6.27;;;;;;;-143.21;63.09;72399.41;6332252;22;20706;-78
2023/09/29 03:58:53;;;;;;;15.10;6.20;;;;;;;-143.21;62.74;72381.53;6334982;22;20195;-78
2023/09/29 04:01:21;;;;;;;15.87;6.97;;;;;;;-143.21;62.15;72383.53;6333270;22;20171;-78
2023/09/29 04:03:47;;;;;;;24.10;7.30;;;;;;;-143.21;62.36;72387.50;6333592;22;20166;-77
2023/09/29 04:06:14;;;;;;;16.33;6.70;;;;;;;-143.21;62.78;72391.47;6333101;22;20168;-78
2023/09/29 04:08:41;;;;;;;24.87;12.03;;;;;;;-143.21;63.30;72387.50;6335958;22;20183;-78
2023/09/29 04:11:08;;;;;;;25.73;10.70;;;;;;;-143.21;63.63;72403.34;6333085;22;20168;-78
2023/09/29 04:13:35;;;;;;;24.60;7.43;;;;;;;-143.21;63.85;72401.38;6331922;22;20259;-78
2023/09/29 04:16:05;;;;;;;14.63;6.37;;;;;;;-143.21;63.92;72407.31;6332957;22;20171;-78
2023/09/29 04:18:32;;;;;;;15.80;6.67;;;;;;;-143.21;63.83;72401.38;6332987;22;20163;-78
2023/09/29 04:21:01;;;;;;;13.37;5.93;;;;;;;-143.21;64.17;72411.28;6334900;22;20191;-78
2023/09/29 04:23:27;;;;;;;18.10;7.03;;;;;;;-143.21;64.16;72411.28;6332491;22;20175;-78
2023/09/29 04:25:54;;;;;;;23.13;6.40;;;;;;;-143.21;63.78;72411.28;6332491;22;20167;-78
2023/09/29 04:28:21;;;;;;;17.87;6.73;;;;;;;-143.21;63.93;72415.25;6331862;22;20167;-77
2023/09/29 04:30:48;;;;;;;21.97;7.20;;;;;;;-143.21;63.80;72403.34;6335492;22;20174;-77
2023/09/29 04:33:16;;;;;;;24.60;7.33;;;;;;;-143.21;64.40;72421.22;6333364;22;20178;-78
2023/09/29 04:35:43;;;;;;;25.30;7.40;;;;;;;-143.21;64.26;72417.25;6333377;22;20159;-78
2023/09/29 04:38:09;;;;;;;27.53;8.03;;;;;;;-143.21;64.21;72417.25;6332747;22;20167;-78
2023/09/29 04:40:37;;;;;;;33.23;9.20;;;;;;;-143.21;64.37;72423.19;6333639;22;20260;-78
2023/09/29 04:43:05;;;;;;;28.10;8.60;;;;;;;-143.21;64.20;72427.16;6333871;22;20202;-78
2023/09/29 04:45:33;;;;;;;34.63;9.73;;;;;;;-143.21;64.36;72423.19;6333608;22;20692;-79
2023/09/29 04:48:01;;;;;;;31.10;9.87;;;;;;;-143.21;64.04;72419.22;6333677;22;20210;-79
2023/09/29 04:50:29;;;;;;;35.43;9.87;;;;;;;-143.21;64.63;72423.19;6332116;22;20179;-79
2023/09/29 04:52:56;;;;;;;29.00;10.90;;;;;;;-143.21;64.73;72425.19;6334549;22;20175;-78
2023/09/29 04:55:23;;;;;;;38.53;12.60;;;;;;;-143.21;64.21;72415.25;6331564;22;20160;-79
2023/09/29 04:57:52;;;;;;;40.60;12.50;;;;;;;-143.21;64.35;72409.31;6331947;22;20538;-79
2023/09/29 05:00:19;;;;;;;34.17;12.77;;;;;;;-143.21;63.96;72413.28;6331914;22;20172;-79
2023/09/29 05:02:46;;;;;;;41.03;11.67;;;;;;;-143.21;63.68;72409.31;6333804;22;20202;-79
2023/09/29 05:05:13;;;;;;;31.07;9.27;;;;;;;-143.21;63.00;72401.38;6334238;22;20167;-80
2023/09/29 05:07:43;;;;;;;15.93;7.20;;;;;;;-143.21;62.15;72391.47;6332538;22;20346;-79
2023/09/29 05:10:13;;;;;;;22.57;6.80;;;;;;;-143.21;61.60;72387.50;6333760;22;20174;-79
2023/09/29 05:12:40;;;;;;;17.90;6.80;;;;;;;-143.21;61.73;72383.53;6333060;22;20151;-80
2023/09/29 05:15:09;;;;;;;14.23;6.20;;;;;;;-143.21;62.14;72387.50;6335442;22;20171;-82
2023/09/29 05:17:36;;;;;;;22.70;7.13;;;;;;;-143.21;62.57;72385.50;6333875;22;20179;-81
2023/09/29 05:20:05;;;;;;;19.03;7.10;;;;;;;-143.21;62.46;72385.50;6333497;22;20159;-82
2023/09/29 05:22:31;;;;;;;22.30;6.83;;;;;;;-143.21;62.17;72379.56;6332895;22;20196;-80
2023/09/29 05:25:00;;;;;;;20.73;7.03;;;;;;;-143.21;62.37;72385.50;6333759;22;20164;-79
2023/09/29 05:27:29;;;;;;;22.17;7.07;;;;;;;-143.21;62.43;72381.53;6335188;22;20163;-80
2023/09/29 05:29:56;;;;;;;18.87;7.50;;;;;;;-143.21;62.26;72387.50;6333909;22;20168;-79
2023/09/29 05:32:23;;;;;;;30.53;8.13;;;;;;;-143.21;62.59;72391.47;6330029;22;20160;-77
2023/09/29 05:34:50;;;;;;;18.97;7.10;;;;;;;-143.21;62.47;72383.53;6332560;22;20237;-81
2023/09/29 05:37:17;;;;;;;22.50;7.97;;;;;;;-143.21;62.48;72389.47;6335011;22;20178;-79
2023/09/29 05:39:43;;;;;;;23.93;7.60;;;;;;;-143.21;62.49;72383.53;6332433;22;20204;-78
2023/09/29 05:42:12;;;;;;;21.23;8.13;;;;;;;-143.21;62.36;72377.56;6332367;22;20241;-77
2023/09/29 05:44:39;;;;;;;27.53;8.67;;;;;;;-143.21;62.21;72373.63;6332390;22;20163;-80
2023/09/29 05:47:08;;;;;;;23.47;8.60;;;;;;;-143.21;62.55;72371.63;6332918;22;20175;-78
2023/09/29 05:49:35;;;;;;;25.60;8.40;;;;;;;-143.21;62.61;72373.63;6333662;22;20171;-78
2023/09/29 05:52:02;;;;;;;25.90;8.40;;;;;;;-143.21;62.38;72355.75;6332666;22;20840;-78
2023/09/29 05:54:29;;;;;;;33.53;8.53;;;;;;;-143.21;61.91;72343.88;6332231;22;20270;-78
2023/09/29 05:56:56;;;;;;;34.63;8.38;;;;;;;-143.21;61.78;72337.91;6332014;22;20182;-78
2023/09/29 05:59:25;;;;;;;25.80;9.30;;;;;;;-143.21;61.78;72333.94;6334964;22;20159;-79
2023/09/29 06:01:52;;;;;;;27.23;8.38;;;;;;;-143.21;61.60;72328.00;6332238;22;20191;-80
2023/09/29 06:04:19;;;;;;;24.98;8.70;;;;;;;-143.21;61.25;72312.13;6332500;22;20171;-79
2023/09/29 06:06:45;;;;;;;27.10;9.03;;;;;;;-143.21;61.10;72306.19;6332762;22;20170;-79
2023/09/29 06:09:12;;;;;;;26.03;8.73;;;;;;;-143.21;60.99;72312.13;6334541;22;20630;-79
2023/09/29 06:11:39;;;;;;;23.57;8.07;;;;;;;-143.21;60.82;72304.19;6334099;22;20171;-81
2023/09/29 06:14:07;;;;;;;21.75;8.68;;;;;;;-143.21;60.83;72304.19;6333310;22;20412;-80
2023/09/29 06:16:36;;;;;;;33.72;8.40;;;;;;;-143.21;60.82;72300.25;6330357;22;20164;-79
2023/09/29 06:19:03;;;;;;;25.10;8.10;;;;;;;-143.21;60.64;72290.31;6331603;22;20172;-79
2023/09/29 06:21:29;;;;;;;19.70;8.50;;;;;;;-143.21;60.19;72280.41;6333301;22;20167;-80
2023/09/29 06:23:56;;;;;;;24.65;8.48;;;;;;;-143.21;59.39;72274.47;6304602;22;20178;-80
2023/09/29 06:26:23;;;;;;;21.48;7.65;;;;;;;-143.21;59.21;72272.47;6332091;22;20170;-80
2023/09/29 06:28:50;;;;;;;21.52;8.60;;;;;;;-143.21;59.18;72276.44;6331655;22;20171;-80
2023/09/29 06:31:17;;;;;;;22.40;8.27;;;;;;;-143.21;59.02;72274.47;6332636;22;20176;-79
2023/09/29 06:33:45;;;;;;;19.05;7.85;;;;;;;-143.21;58.77;72276.44;6335749;22;20171;-80
2023/09/29 06:36:12;;;;;;;17.15;7.55;;;;;;;-143.21;58.34;72264.53;6334129;22;20168;-80
2023/09/29 06:38:41;;;;;;;24.50;7.75;;;;;;;-143.21;57.87;72258.59;6333575;22;20497;-80
2023/09/29 06:41:08;;;;;;;19.73;7.47;;;;;;;-143.21;57.17;72258.59;6333302;22;20168;-80
2023/09/29 06:43:38;;;;;;;19.77;8.30;;;;;;;-143.21;57.03;72252.63;6333609;22;20199;-80
2023/09/29 06:46:04;;;;;;;21.63;7.72;;;;;;;-143.21;56.47;72246.69;6331732;22;20172;-80
2023/09/29 06:48:33;;;;;;;16.63;6.13;;;;;;;-143.21;54.14;72240.75;6332009;22;20167;-79
2023/09/29 06:51:01;;;;;;;24.08;7.82;;;;;;;-143.21;54.25;72250.66;6331105;22;20863;-80
2023/09/29 06:53:31;;;;;;;24.23;7.85;;;;;;;-143.21;54.87;72250.66;6333860;22;20201;-80
2023/09/29 06:55:59;;;;;;;20.35;8.52;;;;;;;-143.21;55.14;72252.63;6333321;22;20164;-80
2023/09/29 06:58:26;;;;;;;25.67;9.13;;;;;;;-143.21;55.29;72244.72;6331027;22;20199;-80
2023/09/29 07:00:53;;;;;;;21.55;8.40;;;;;;;-143.21;55.02;72238.75;6332452;22;20552;-80
2023/09/29 07:03:20;;;;;;;25.80;10.07;;;;;;;-143.21;54.11;72228.84;6332458;22;20195;-80
2023/09/29 07:05:47;;;;;;;23.98;9.43;;;;;;;-143.21;54.19;72226.84;6333879;22;20171;-81
2023/09/29 07:08:16;;;;;;;34.50;10.77;;;;;;;-143.21;54.31;72212.97;6331958;22;20183;-81
2023/09/29 07:10:43;;;;;;;26.65;10.18;;;;;;;-143.21;53.80;72197.13;6333002;22;20166;-81
2023/09/29 07:13:10;;;;;;;26.17;9.48;;;;;;;-143.21;53.63;72185.22;6333321;22;20198;-81
2023/09/29 07:15:37;;;;;;;23.42;11.05;;;;;;;-143.21;54.08;72173.31;6333488;22;20229;-81
2023/09/29 07:18:04;;;;;;;32.50;11.65;;;;;;;-143.21;53.75;72173.31;6333126;22;20175;-81
2023/09/29 07:20:31;;;;;;;34.28;11.80;;;;;;;-143.21;53.23;72173.31;6332171;22;20171;-81
2023/09/29 07:22:58;;;;;;;24.67;10.90;;;;;;;-143.21;52.72;72161.41;6332623;22;20537;-81
2023/09/29 07:25:26;;;;;;;25.23;10.65;;;;;;;-143.21;53.04;72149.53;6333189;22;20167;-81
2023/09/29 07:27:53;;;;;;;28.10;10.55;;;;;;;-143.21;52.88;72133.66;6334776;22;20502;-81
2023/09/29 07:30:20;;;;;;;19.70;8.88;;;;;;;-143.21;52.62;72119.78;6332731;22;20630;-80
2023/09/29 07:32:47;;;;;;;24.88;8.57;;;;;;;-143.21;52.24;72095.97;6332851;22;20236;-81
2023/09/29 07:35:14;;;;;;;25.13;8.50;;;;;;;-143.21;51.15;72078.13;6332136;22;20168;-80
2023/09/29 07:37:41;;;;;;;21.70;8.75;;;;;;;-143.21;50.98;72066.22;6334311;22;20209;-80
2023/09/29 07:40:09;;;;;;;31.08;8.48;;;;;;;-143.21;50.96;72048.38;6333467;22;20194;-80
2023/09/29 07:42:38;;;;;;;23.45;7.78;;;;;;;-143.21;50.77;72034.50;6333170;22;20191;-81
2023/09/29 07:45:05;;;;;;;31.10;7.43;;;;;;;-143.21;49.91;72008.72;6332375;22;20167;-81
2023/09/29 07:47:32;;;;;;;31.58;6.63;;;;;;;-143.21;48.20;71998.81;6331663;22;20164;-81
2023/09/29 07:49:59;;;;;;;21.70;7.13;;;;;;;-143.21;47.66;71984.94;6333022;22;20175;-81
2023/09/29 07:52:28;;;;;;;21.52;6.63;;;;;;;-143.21;48.00;71977.00;6331814;22;20168;-80
2023/09/29 07:54:55;;;;;;;19.98;6.20;;;;;;;-143.21;47.85;71959.16;6332556;22;20259;-80
2023/09/29 07:57:22;;;;;;;20.27;6.15;;;;;;;-143.21;48.10;71949.25;6332077;22;20705;-80
2023/09/29 07:59:50;;;;;;;27.02;6.32;;;;;;;-143.21;47.80;71933.38;6334436;22;20164;-79
2023/09/29 08:02:17;;;;;;;25.10;5.55;;;;;;;-143.21;47.64;71925.44;6333160;22;20206;-80
2023/09/29 08:04:44;;;;;;;16.92;5.90;;;;;;;-143.21;47.03;71911.56;6333658;22;20566;-80
2023/09/29 08:07:11;;;;;;;19.75;6.18;;;;;;;-143.21;45.67;71907.59;6334749;22;20552;-80
2023/09/29 08:09:39;;;;;;;26.60;7.40;;;;;;;-143.21;46.65;71895.69;6334503;22;20236;-81
2023/09/29 08:12:06;;;;;;;23.40;6.70;;;;;;;-143.21;46.99;71885.78;6335317;22;20171;-81
2023/09/29 08:14:33;;;;;;;24.02;6.45;;;;;;;-143.21;46.12;71863.97;6334148;22;20198;-81
2023/09/29 08:17:01;;;;;;;21.63;5.53;;;;;;;-143.21;45.22;71848.09;6333465;22;20175;-80
2023/09/29 08:19:29;;;;;;;25.13;6.07;;;;;;;-143.21;44.76;71836.22;6333517;22;20195;-80
2023/09/29 08:21:56;;;;;;;14.07;5.47;;;;;;;-143.21;44.89;71830.25;6335822;22;20170;-80
2023/09/29 08:24:23;;;;;;;20.35;5.40;;;;;;;-143.21;44.55;71818.38;6334039;22;20164;-82
2023/09/29 08:26:50;;;;;;;28.58;5.60;;;;;;;-143.21;43.81;71802.50;6334143;22;20190;-81
2023/09/29 08:29:17;;;;;;;26.42;5.97;;;;;;;-143.21;44.03;71800.53;6333925;22;20182;-81
2023/09/29 08:31:44;;;;;;;25.00;6.68;;;;;;;-143.21;43.59;71782.69;6333780;22;20174;-82
2023/09/29 08:34:12;;;;;;;21.38;5.25;;;;;;;-143.21;44.04;71770.78;6335120;22;20170;-81
2023/09/29 08:36:39;;;;;;;18.35;6.28;;;;;;;-143.21;43.65;71760.88;6334116;22;20171;-81
2023/09/29 08:39:06;;;;;;;24.95;5.95;;;;;;;-143.21;43.28;71762.84;6333794;22;20163;-81
2023/09/29 08:41:35;;;;;;;28.98;6.47;;;;;;;-143.21;43.09;71754.91;6333922;22;20175;-80
2023/09/29 08:44:03;;;;;;;15.38;5.72;;;;;;;-143.21;43.19;71750.94;6335241;22;20198;-81
2023/09/29 08:46:33;;;;;;;24.17;7.65;;;;;;;-143.21;42.85;71745.00;6327884;22;20171;-80
2023/09/29 08:49:03;;;;;;;23.50;7.30;;;;;;;-143.21;42.59;71735.09;6331897;22;20463;-80
2023/09/29 08:51:32;;;;;;;20.83;6.53;;;;;;;-143.21;42.07;71725.16;6333679;22;20172;-81
2023/09/29 08:54:02;;;;;;;25.52;5.72;;;;;;;-143.21;40.63;71711.28;6334456;22;20164;-80
2023/09/29 08:56:30;;;;;;;12.77;4.90;;;;;;;-143.21;40.02;71705.34;6335122;22;20167;-82
2023/09/29 08:58:58;;;;;;;14.57;5.60;;;;;;;-143.21;40.09;71695.44;6334491;22;20572;-81
2023/09/29 09:01:26;;;;;;;18.05;4.75;;;;;;;-143.21;39.73;71671.63;6332862;22;20171;-81
2023/09/29 09:03:53;;;;;;;12.23;5.00;;;;;;;-143.21;39.31;71645.88;6330254;22;20215;-81
2023/09/29 09:06:23;;;;;;;13.85;4.55;;;;;;;-143.21;38.34;71606.22;6334883;22;20164;-81
2023/09/29 09:08:52;;;;;;;12.88;4.97;;;;;;;-143.21;38.13;71566.56;6335196;22;20168;-82
2023/09/29 09:11:19;;;;;;;14.18;4.88;;;;;;;-143.21;37.10;71542.75;6335511;22;20174;-81
2023/09/29 09:13:58;;;;;;;13.48;4.50;;;;;;;-143.21;36.70;71524.91;6334092;22;20175;-81
2023/09/29 09:16:26;;;;;;;10.82;4.53;;;;;;;-143.21;35.69;71509.06;6331740;22;20254;-82
2023/09/29 09:18:54;;;;;;;14.13;5.13;;;;;;;-143.21;36.23;71491.22;6333987;22;20164;-81
2023/09/29 09:21:21;;;;;;;13.70;4.43;;;;;;;-143.21;35.99;71479.31;6331720;22;20164;-83
2023/09/29 09:23:48;;;;;;;19.55;4.97;;;;;;;-143.21;36.24;71461.47;6333769;22;20208;-82
2023/09/29 09:26:16;;;;;;;15.80;4.38;;;;;;;-143.21;35.05;71447.59;6333926;22;20179;-81
2023/09/29 09:28:44;;;;;;;17.55;4.30;;;;;;;-143.21;34.60;71423.78;6334504;22;20166;-77
2023/09/29 09:31:11;;;;;;;10.38;4.72;;;;;;;-143.21;34.76;71403.97;6334644;22;20167;-81
2023/09/29 09:33:38;;;;;;;12.82;4.63;;;;;;;-143.21;34.62;71386.13;6334358;22;20167;-80
2023/09/29 09:36:10;;;;;;;14.70;5.03;;;;;;;-143.21;34.40;71380.19;6334063;22;20167;-80
2023/09/29 09:38:37;;;;;;;11.10;4.13;;;;;;;-143.21;33.84;71384.16;6333624;22;20595;-82
2023/09/29 09:41:05;;;;;;;12.32;4.40;;;;;;;-143.21;33.51;71400.00;6335729;22;20174;-82
2023/09/29 09:43:36;;;;;;;10.40;3.75;;;;;;;-143.21;33.82;71386.13;6334553;22;20270;-81
2023/09/29 09:46:06;;;;;;;13.57;4.47;;;;;;;-143.21;34.10;71376.22;6333761;22;20187;-81
2023/09/29 09:48:45;;;;;;;15.82;4.43;;;;;;;-143.21;32.62;71346.47;6333791;22;20521;-81
2023/09/29 09:51:19;;;;;;;11.02;4.53;;;;;;;-143.21;32.84;71302.84;6334584;22;20151;-81
2023/09/29 09:53:48;;;;;;;17.85;5.10;;;;;;;-143.21;32.49;71247.34;6334232;22;20155;-79
2023/09/29 09:56:20;;;;;;;9.68;4.35;;;;;;;-143.21;31.56;71203.72;6329482;22;20174;-78
2023/09/29 09:58:50;;;;;;;17.73;4.53;;;;;;;-143.21;30.47;71168.06;6331438;22;20187;-79
2023/09/29 10:01:17;;;;;;;11.88;4.25;;;;;;;-143.21;30.24;71118.50;6332469;22;20163;-79
2023/09/29 10:03:44;;;;;;;8.32;4.88;;;;;;;-143.21;29.78;71051.09;6332010;22;20664;-77
2023/09/29 10:06:11;;;;;;;14.07;4.47;;;;;;;-143.21;29.28;71023.34;6333869;22;20254;-78
2023/09/29 10:08:38;;;;;;;16.50;4.93;;;;;;;-143.21;29.55;71031.25;6332409;22;20175;-78
2023/09/29 10:11:12;;;;;;;15.60;4.55;;;;;;;-143.21;29.56;71059.00;6331416;22;20687;-78
2023/09/29 10:13:39;;;;;;;17.30;4.90;;;;;;;-143.21;29.66;71132.38;6331648;22;20222;-78
2023/09/29 10:16:07;;;;;;;14.30;5.18;;;;;;;-143.21;30.29;71158.13;6333443;22;20167;-79
2023/09/29 10:18:34;;;;;;;14.13;4.30;;;;;;;-143.21;30.72;71162.09;6332460;22;20180;-79
2023/09/29 10:21:09;;;;;;;13.75;4.60;;;;;;;-143.21;30.49;71189.84;6332167;22;20171;-79
2023/09/29 10:23:46;;;;;;;11.73;5.30;;;;;;;-143.21;31.30;71235.44;6332244;22;20645;-79
2023/09/29 10:26:13;;;;;;;16.33;4.80;;;;;;;-143.21;31.62;71247.34;6331726;22;20187;-79
2023/09/29 10:28:41;;;;;;;11.70;4.38;;;;;;;-143.21;31.67;71241.41;6333416;22;20243;-79
2023/09/29 10:31:13;;;;;;;14.25;4.72;;;;;;;-143.21;31.63;71253.28;6332398;22;20159;-79
2023/09/29 10:33:51;;;;;;;22.73;4.90;;;;;;;-143.21;31.72;71265.19;6332419;22;20158;-78
2023/09/29 10:36:19;;;;;;;11.90;5.05;;;;;;;-143.21;31.64;71287.00;6331621;22;20274;-78
2023/09/29 10:38:47;;;;;;;14.48;4.78;;;;;;;-143.21;31.56;71322.69;6331786;22;20167;-78
2023/09/29 10:41:15;;;;;;;29.55;5.68;;;;;;;-143.21;31.71;71322.69;6332780;22;20164;-79
2023/09/29 10:43:47;;;;;;;18.45;5.18;;;;;;;-143.21;31.24;71320.69;6330970;22;20605;-79
2023/09/29 10:46:16;;;;;;;17.00;4.40;;;;;;;-143.21;31.20;71263.22;6330783;22;20152;-79
2023/09/29 10:48:47;;;;;;;12.70;4.93;;;;;;;-143.21;29.97;71259.25;6331436;22;20626;-79
2023/09/29 10:51:22;;;;;;;15.07;4.75;;;;;;;-143.21;29.73;71247.34;6332701;22;20178;-79
2023/09/29 10:53:50;;;;;;;14.05;4.90;;;;;;;-143.21;29.48;71181.94;6333823;22;20212;-79
2023/09/29 10:56:20;;;;;;;15.25;4.60;;;;;;;-143.21;28.94;71150.22;6331817;22;20160;-78
2023/09/29 10:58:48;;;;;;;22.83;5.05;;;;;;;-143.21;29.75;71154.16;6331567;22;20187;-78
2023/09/29 11:01:22;;;;;;;13.15;4.45;;;;;;;-143.21;29.20;71150.22;6331975;22;20163;-78
2023/09/29 11:03:50;;;;;;;17.67;5.00;;;;;;;-143.21;29.46;71150.22;6332437;22;20172;-79
2023/09/29 11:06:18;;;;;;;15.82;4.32;;;;;;;-143.21;29.67;71106.59;6332829;22;20171;-79
2023/09/29 11:08:53;;;;;;;9.90;4.65;;;;;;;-143.21;29.34;71059.00;6331356;22;20167;-78
2023/09/29 11:11:20;;;;;;;17.85;4.88;;;;;;;-143.21;28.65;71001.53;6330882;22;20163;-79
2023/09/29 11:13:54;;;;;;;22.60;5.65;;;;;;;-143.21;27.71;70934.13;6331703;22;20703;-79